createdAt,value
2023-05-01T00:02:27.763Z,69.59
2023-05-01T00:04:55.337Z,69.61
2023-05-01T00:07:22.855Z,69.54
2023-05-01T00:09:50.305Z,69.60
2023-05-01T00:12:17.893Z,69.34
2023-05-01T00:14:45.349Z,69.56
2023-05-01T00:17:12.888Z,69.48
2023-05-01T00:19:41.877Z,69.63
2023-05-01T00:22:09.319Z,69.63
2023-05-01T00:24:36.764Z,69.44
2023-05-01T00:27:04.279Z,69.38
2023-05-01T00:29:31.722Z,69.59
2023-05-01T00:31:59.195Z,69.42
2023-05-01T00:34:26.747Z,69.58
2023-05-01T00:36:55.523Z,69.63
2023-05-01T00:39:23.020Z,69.35
2023-05-01T00:41:50.464Z,69.54
2023-05-01T00:44:17.930Z,69.54
2023-05-01T00:46:45.396Z,69.51
2023-05-01T00:49:13.478Z,69.54
2023-05-01T00:51:41.616Z,69.55
2023-05-01T00:54:10.449Z,69.60
2023-05-01T00:56:38.577Z,69.55
2023-05-01T00:59:06.036Z,69.53
2023-05-01T01:01:34.776Z,69.57
2023-05-01T01:04:02.310Z,69.62
2023-05-01T01:06:32.279Z,69.66
2023-05-01T01:09:07.970Z,69.61
2023-05-01T01:11:39.415Z,69.40
2023-05-01T01:14:09.516Z,69.62
2023-05-01T01:16:40.738Z,69.56
2023-05-01T01:19:19.449Z,69.64
2023-05-01T01:21:50.803Z,69.73
2023-05-01T01:24:33.933Z,69.60
2023-05-01T01:27:11.580Z,69.66
2023-05-01T01:29:41.642Z,69.66
2023-05-01T01:32:12.720Z,69.56
2023-05-01T01:34:45.160Z,69.67
2023-05-01T01:37:15.953Z,69.75
2023-05-01T01:39:46.906Z,69.61
2023-05-01T01:42:16.863Z,69.55
2023-05-01T01:44:53.116Z,69.79
2023-05-01T01:47:21.695Z,69.52
2023-05-01T01:49:53.018Z,69.63
2023-05-01T01:52:21.677Z,69.75
2023-05-01T01:54:51.298Z,69.65
2023-05-01T01:57:20.393Z,69.52
2023-05-01T01:59:49.544Z,69.64
2023-05-01T02:02:18.346Z,69.76
2023-05-01T02:04:46.727Z,69.60
2023-05-01T02:07:15.931Z,69.44
2023-05-01T02:09:45.655Z,69.76
2023-05-01T02:12:13.798Z,69.56
2023-05-01T02:14:42.212Z,69.60
2023-05-01T02:17:10.449Z,69.67
2023-05-01T02:19:40.209Z,69.66
2023-05-01T02:22:08.178Z,69.66
2023-05-01T02:24:38.196Z,69.56
2023-05-01T02:27:16.659Z,69.68
2023-05-01T02:29:44.362Z,69.54
2023-05-01T02:32:12.326Z,69.67
2023-05-01T02:34:39.779Z,69.69
2023-05-01T02:37:07.884Z,69.68
2023-05-01T02:39:36.728Z,69.71
2023-05-01T02:42:04.468Z,69.85
2023-05-01T02:44:33.839Z,69.85
2023-05-01T02:47:01.873Z,69.62
2023-05-01T02:49:31.054Z,69.79
2023-05-01T02:51:59.782Z,69.71
2023-05-01T02:54:27.436Z,69.63
2023-05-01T02:56:58.225Z,69.79
2023-05-01T02:59:25.700Z,69.80
2023-05-01T03:01:53.166Z,69.76
2023-05-01T03:04:20.670Z,69.84
2023-05-01T03:06:48.364Z,69.96
2023-05-01T03:09:16.258Z,69.84
2023-05-01T03:11:43.738Z,69.79
2023-05-01T03:14:12.791Z,69.96
2023-05-01T03:16:40.527Z,69.82
2023-05-01T03:19:08.060Z,70.10
2023-05-01T03:21:35.466Z,69.79
2023-05-01T03:24:03.283Z,69.72
2023-05-01T03:26:30.696Z,69.75
2023-05-01T03:28:58.430Z,69.74
2023-05-01T03:31:27.265Z,69.74
2023-05-01T03:33:54.709Z,69.76
2023-05-01T03:36:22.934Z,69.78
2023-05-01T03:38:50.382Z,69.73
2023-05-01T03:41:18.026Z,69.85
2023-05-01T03:43:45.519Z,69.71
2023-05-01T03:46:12.989Z,69.60
2023-05-01T03:48:41.968Z,69.68
2023-05-01T03:51:09.414Z,69.72
2023-05-01T03:53:37.294Z,69.96
2023-05-01T03:56:05.468Z,69.75
2023-05-01T03:58:33.023Z,69.79
2023-05-01T04:01:00.930Z,69.73
2023-05-01T04:03:28.697Z,69.80
2023-05-01T04:05:57.982Z,69.91
2023-05-01T04:08:25.516Z,69.84
2023-05-01T04:10:52.951Z,69.74
2023-05-01T04:13:20.439Z,69.82
2023-05-01T04:15:47.970Z,69.93
2023-05-01T04:18:15.875Z,69.83
2023-05-01T04:20:43.330Z,69.89
2023-05-01T04:23:12.730Z,69.77
2023-05-01T04:25:40.215Z,69.85
2023-05-01T04:28:07.659Z,69.72
2023-05-01T04:30:35.386Z,69.86
2023-05-01T04:33:03.924Z,69.94
2023-05-01T04:35:31.442Z,69.74
2023-05-01T04:37:58.872Z,69.83
2023-05-01T04:40:27.658Z,69.94
2023-05-01T04:42:55.146Z,69.86
2023-05-01T04:45:22.617Z,69.90
2023-05-01T04:47:50.103Z,69.82
2023-05-01T04:50:17.565Z,69.86
2023-05-01T04:52:45.023Z,69.85
2023-05-01T04:55:12.516Z,69.73
2023-05-01T04:57:41.279Z,69.74
2023-05-01T05:00:09.209Z,69.78
2023-05-01T05:02:37.143Z,69.81
2023-05-01T05:05:04.697Z,69.99
2023-05-01T05:07:32.158Z,69.79
2023-05-01T05:09:59.557Z,69.79
2023-05-01T05:12:27.030Z,69.82
2023-05-01T05:14:55.871Z,69.77
2023-05-01T05:17:23.295Z,69.84
2023-05-01T05:19:50.744Z,69.76
2023-05-01T05:22:18.167Z,69.94
2023-05-01T05:24:47.048Z,69.72
2023-05-01T05:27:14.461Z,69.76
2023-05-01T05:29:41.915Z,69.76
2023-05-01T05:32:11.530Z,69.85
2023-05-01T05:34:39.181Z,69.80
2023-05-01T05:37:06.614Z,69.75
2023-05-01T05:39:34.065Z,69.67
2023-05-01T05:42:01.508Z,69.91
2023-05-01T05:44:28.905Z,69.82
2023-05-01T05:46:56.320Z,69.90
2023-05-01T05:49:25.148Z,69.64
2023-05-01T05:51:52.660Z,69.76
2023-05-01T05:54:20.106Z,70.07
2023-05-01T05:56:47.547Z,69.88
2023-05-01T05:59:17.292Z,70.04
2023-05-01T06:01:45.017Z,69.98
2023-05-01T06:04:14.082Z,69.94
2023-05-01T06:06:43.093Z,69.92
2023-05-01T06:09:12.734Z,69.88
2023-05-01T06:11:40.188Z,69.90
2023-05-01T06:14:07.637Z,69.90
2023-05-01T06:16:35.335Z,69.94
2023-05-01T06:19:02.842Z,70.04
2023-05-01T06:21:32.111Z,70.00
2023-05-01T06:24:00.912Z,70.06
2023-05-01T06:26:28.429Z,70.02
2023-05-01T06:28:56.237Z,70.04
2023-05-01T06:31:23.735Z,70.09
2023-05-01T06:33:51.224Z,70.00
2023-05-01T06:36:18.673Z,69.83
2023-05-01T06:38:48.797Z,70.00
2023-05-01T06:41:17.868Z,69.98
2023-05-01T06:43:45.308Z,69.92
2023-05-01T06:46:12.954Z,69.96
2023-05-01T06:48:40.439Z,69.90
2023-05-01T06:51:07.901Z,69.97
2023-05-01T06:53:36.730Z,69.95
2023-05-01T06:56:04.268Z,69.87
2023-05-01T06:58:33.059Z,69.96
2023-05-01T07:01:00.613Z,69.84
2023-05-01T07:03:28.522Z,69.92
2023-05-01T07:05:55.995Z,69.84
2023-05-01T07:08:24.239Z,69.93
2023-05-01T07:10:51.653Z,69.94
2023-05-01T07:13:19.531Z,69.97
2023-05-01T07:15:48.770Z,70.01
2023-05-01T07:18:17.091Z,69.93
2023-05-01T07:20:44.808Z,69.88
2023-05-01T07:23:12.253Z,70.03
2023-05-01T07:25:44.207Z,70.10
2023-05-01T07:28:11.757Z,70.05
2023-05-01T07:30:39.578Z,69.96
2023-05-01T07:33:08.509Z,70.03
2023-05-01T07:35:36.209Z,69.02
2023-05-01T07:38:04.377Z,67.99
2023-05-01T07:40:33.932Z,66.86
2023-05-01T07:43:01.600Z,65.83
2023-05-01T07:45:29.105Z,65.24
2023-05-01T07:47:57.070Z,65.00
2023-05-01T07:50:26.386Z,66.06
2023-05-01T07:52:53.829Z,66.51
2023-05-01T07:55:22.640Z,65.99
2023-05-01T07:57:50.621Z,66.38
2023-05-01T08:00:18.838Z,64.88
2023-05-01T08:02:46.485Z,64.64
2023-05-01T08:05:14.381Z,63.90
2023-05-01T08:07:43.170Z,64.15
2023-05-01T08:10:10.904Z,64.10
2023-05-01T08:12:38.464Z,64.04
2023-05-01T08:15:06.428Z,64.03
2023-05-01T08:17:34.255Z,64.37
2023-05-01T08:20:01.827Z,64.13
2023-05-01T08:22:29.264Z,63.64
2023-05-01T08:24:58.247Z,63.82
2023-05-01T08:27:25.680Z,63.50
2023-05-01T08:29:53.190Z,63.29
2023-05-01T08:32:21.445Z,63.60
2023-05-01T08:34:48.887Z,63.61
2023-05-01T08:37:18.860Z,64.30
2023-05-01T08:39:46.328Z,64.61
2023-05-01T08:42:15.261Z,64.59
2023-05-01T08:44:43.082Z,64.41
2023-05-01T08:47:12.702Z,64.10
2023-05-01T08:49:41.635Z,64.42
2023-05-01T08:52:09.702Z,64.94
2023-05-01T08:54:38.972Z,64.97
2023-05-01T08:57:09.727Z,65.50
2023-05-01T08:59:39.923Z,65.58
2023-05-01T09:02:08.420Z,65.60
2023-05-01T09:04:37.048Z,65.78
2023-05-01T09:07:04.929Z,66.00
2023-05-01T09:09:33.316Z,65.99
2023-05-01T09:12:02.988Z,66.07
2023-05-01T09:14:31.770Z,66.22
2023-05-01T09:17:00.650Z,66.43
2023-05-01T09:19:28.220Z,66.62
2023-05-01T09:21:55.891Z,66.64
2023-05-01T09:24:24.893Z,66.53
2023-05-01T09:26:52.576Z,66.80
2023-05-01T09:29:39.182Z,66.91
2023-05-01T09:32:18.106Z,67.12
2023-05-01T09:34:45.638Z,67.15
2023-05-01T09:37:14.962Z,67.36
2023-05-01T09:39:42.407Z,67.46
2023-05-01T09:42:10.113Z,67.46
2023-05-01T09:44:45.243Z,67.65
2023-05-01T09:47:13.873Z,67.70
2023-05-01T09:49:51.769Z,67.87
2023-05-01T09:52:19.268Z,68.28
2023-05-01T09:54:46.862Z,68.04
2023-05-01T09:57:14.409Z,68.02
2023-05-01T09:59:41.848Z,68.10
2023-05-01T10:02:18.709Z,68.16
2023-05-01T10:04:46.273Z,68.31
2023-05-01T10:07:15.418Z,68.23
2023-05-01T10:09:42.918Z,68.23
2023-05-01T10:12:10.381Z,68.04
2023-05-01T10:14:50.253Z,68.28
2023-05-01T10:17:20.925Z,68.48
2023-05-01T10:19:48.712Z,68.57
2023-05-01T10:22:17.619Z,68.52
2023-05-01T10:24:46.093Z,68.88
2023-05-01T10:27:14.092Z,68.69
2023-05-01T10:29:41.857Z,69.04
2023-05-01T10:32:10.364Z,69.08
2023-05-01T10:34:39.553Z,69.06
2023-05-01T10:37:10.694Z,69.20
2023-05-01T10:39:39.830Z,69.11
2023-05-01T10:42:10.978Z,68.96
2023-05-01T10:44:38.676Z,68.97
2023-05-01T10:47:31.369Z,68.91
2023-05-01T10:50:06.989Z,68.76
2023-05-01T10:52:49.319Z,68.97
2023-05-01T10:55:37.276Z,69.09
2023-05-01T10:58:04.870Z,69.00
2023-05-01T11:00:34.287Z,68.91
2023-05-01T11:03:20.392Z,68.84
2023-05-01T11:06:06.378Z,69.01
2023-05-01T11:08:34.843Z,69.09
2023-05-01T11:11:23.097Z,69.12
2023-05-01T11:13:57.626Z,69.10
2023-05-01T11:16:49.776Z,69.21
2023-05-01T11:19:35.958Z,69.19
2023-05-01T11:22:03.472Z,69.30
2023-05-01T11:24:33.795Z,69.38
2023-05-01T11:27:01.698Z,69.15
2023-05-01T11:29:33.716Z,69.40
2023-05-01T11:32:01.589Z,69.23
2023-05-01T11:34:29.229Z,69.13
2023-05-01T11:36:56.630Z,69.15
2023-05-01T11:39:24.141Z,69.32
2023-05-01T11:41:51.579Z,69.13
2023-05-01T11:44:19.462Z,69.11
2023-05-01T11:46:57.850Z,69.38
2023-05-01T11:49:27.881Z,69.38
2023-05-01T11:51:57.415Z,69.25
2023-05-01T11:54:25.096Z,69.40
2023-05-01T11:56:59.011Z,69.42
2023-05-01T11:59:26.841Z,69.21
2023-05-01T12:01:55.754Z,69.25
2023-05-01T12:04:24.808Z,69.31
2023-05-01T12:06:52.563Z,69.43
2023-05-01T12:09:21.067Z,69.38
2023-05-01T12:11:52.275Z,69.24
2023-05-01T12:14:20.499Z,69.34
2023-05-01T12:16:48.289Z,69.36
2023-05-01T12:19:17.478Z,69.42
2023-05-01T12:21:45.042Z,69.38
2023-05-01T12:24:12.986Z,69.45
2023-05-01T12:26:40.624Z,69.36
2023-05-01T12:29:08.950Z,69.44
2023-05-01T12:31:37.438Z,69.46
2023-05-01T12:34:06.081Z,69.50
2023-05-01T12:36:36.111Z,69.53
2023-05-01T12:39:05.111Z,69.71
2023-05-01T12:41:37.778Z,69.60
2023-05-01T12:44:16.757Z,69.59
2023-05-01T12:46:44.364Z,69.77
2023-05-01T12:49:16.775Z,69.63
2023-05-01T12:51:48.349Z,69.61
2023-05-01T12:54:19.664Z,69.85
2023-05-01T12:56:47.472Z,69.85
2023-05-01T12:59:21.811Z,69.76
2023-05-01T13:01:49.291Z,69.91
2023-05-01T13:04:21.697Z,69.61
2023-05-01T13:06:50.651Z,69.70
2023-05-01T13:09:18.176Z,69.73
2023-05-01T13:11:57.017Z,69.72
2023-05-01T13:14:24.557Z,69.75
2023-05-01T13:16:52.561Z,69.72
2023-05-01T13:19:28.222Z,69.77
2023-05-01T13:21:57.949Z,69.72
2023-05-01T13:24:25.955Z,69.77
2023-05-01T13:27:04.863Z,69.69
2023-05-01T13:29:33.341Z,69.80
2023-05-01T13:32:00.994Z,69.79
2023-05-01T13:34:30.905Z,69.76
2023-05-01T13:37:00.463Z,69.87
2023-05-01T13:39:27.907Z,69.97
2023-05-01T13:41:55.830Z,69.76
2023-05-01T13:44:23.471Z,69.87
2023-05-01T13:46:51.133Z,69.96
2023-05-01T13:49:21.629Z,70.25
2023-05-01T13:51:49.111Z,69.88
2023-05-01T13:54:18.053Z,69.92
2023-05-01T13:56:46.514Z,70.05
2023-05-01T13:59:13.962Z,69.97
2023-05-01T14:01:45.949Z,70.05
2023-05-01T14:04:16.831Z,69.95
2023-05-01T14:06:45.016Z,70.14
2023-05-01T14:09:12.527Z,70.03
2023-05-01T14:11:46.577Z,70.09
2023-05-01T14:14:15.994Z,70.13
2023-05-01T14:16:45.421Z,70.07
2023-05-01T14:19:15.510Z,70.17
2023-05-01T14:21:43.378Z,70.04
2023-05-01T14:24:11.351Z,70.33
2023-05-01T14:26:40.675Z,70.26
2023-05-01T14:29:14.087Z,70.18
2023-05-01T14:31:41.593Z,70.28
2023-05-01T14:34:09.085Z,70.19
2023-05-01T14:36:36.523Z,70.23
2023-05-01T14:39:05.454Z,69.99
2023-05-01T14:41:34.676Z,70.14
2023-05-01T14:44:03.672Z,70.16
2023-05-01T14:46:33.309Z,70.24
2023-05-01T14:49:01.506Z,70.12
2023-05-01T14:51:31.246Z,69.96
2023-05-01T14:53:58.737Z,69.93
2023-05-01T14:56:26.159Z,70.18
2023-05-01T14:58:53.634Z,70.01
2023-05-01T15:01:21.742Z,70.14
2023-05-01T15:03:50.825Z,69.99
2023-05-01T15:06:18.396Z,70.06
2023-05-01T15:08:46.455Z,71.33
2023-05-01T15:11:14.436Z,70.81
2023-05-01T15:13:42.672Z,70.44
2023-05-01T15:16:10.974Z,70.68
2023-05-01T15:18:38.646Z,70.89
2023-05-01T15:21:07.548Z,71.04
2023-05-01T15:23:36.896Z,71.07
2023-05-01T15:26:04.529Z,71.04
2023-05-01T15:28:32.572Z,71.17
2023-05-01T15:31:00.141Z,71.11
2023-05-01T15:33:27.780Z,71.01
2023-05-01T15:35:55.283Z,71.19
2023-05-01T15:38:25.104Z,71.38
2023-05-01T15:40:52.537Z,71.11
2023-05-01T15:43:21.140Z,70.99
2023-05-01T15:45:48.666Z,71.19
2023-05-01T15:48:16.209Z,70.97
2023-05-01T15:50:43.701Z,71.27
2023-05-01T15:53:11.130Z,71.17
2023-05-01T15:55:39.924Z,71.75
2023-05-01T15:58:07.638Z,71.57
2023-05-01T16:00:35.922Z,71.79
2023-05-01T16:03:04.472Z,71.33
2023-05-01T16:05:32.631Z,71.08
2023-05-01T16:08:00.958Z,70.94
2023-05-01T16:10:28.420Z,70.97
2023-05-01T16:12:57.238Z,70.79
2023-05-01T16:15:24.640Z,70.86
2023-05-01T16:17:54.243Z,71.06
2023-05-01T16:20:21.930Z,70.64
2023-05-01T16:22:49.381Z,70.52
2023-05-01T16:25:17.087Z,70.41
2023-05-01T16:27:46.134Z,70.66
2023-05-01T16:30:15.368Z,70.45
2023-05-01T16:32:43.431Z,70.46
2023-05-01T16:35:11.503Z,70.32
2023-05-01T16:37:39.482Z,70.34
2023-05-01T16:40:07.926Z,69.95
2023-05-01T16:42:36.313Z,69.83
2023-05-01T16:45:04.514Z,69.86
2023-05-01T16:47:34.419Z,69.98
2023-05-01T16:50:02.396Z,70.05
2023-05-01T16:52:30.067Z,69.93
2023-05-01T16:54:59.359Z,69.76
2023-05-01T16:57:26.841Z,69.86
2023-05-01T16:59:54.328Z,69.99
2023-05-01T17:02:21.801Z,70.05
2023-05-01T17:04:50.668Z,70.01
2023-05-01T17:07:18.129Z,70.04
2023-05-01T17:09:45.553Z,70.30
2023-05-01T17:12:13.013Z,70.29
2023-05-01T17:14:40.432Z,70.46
2023-05-01T17:17:09.512Z,70.38
2023-05-01T17:19:38.900Z,70.32
2023-05-01T17:22:08.067Z,70.47
2023-05-01T17:24:36.128Z,70.40
2023-05-01T17:27:03.789Z,70.49
2023-05-01T17:29:31.297Z,70.49
2023-05-01T17:31:58.762Z,70.58
2023-05-01T17:34:26.253Z,70.38
2023-05-01T17:36:55.882Z,70.49
2023-05-01T17:39:27.487Z,71.82
2023-05-01T17:41:55.471Z,70.66
2023-05-01T17:44:22.925Z,71.22
2023-05-01T17:46:50.394Z,71.37
2023-05-01T17:49:17.911Z,71.59
2023-05-01T17:51:46.122Z,71.76
2023-05-01T17:54:16.517Z,72.12
2023-05-01T17:56:45.632Z,72.12
2023-05-01T17:59:13.551Z,72.17
2023-05-01T18:01:41.216Z,72.35
2023-05-01T18:04:09.067Z,72.32
2023-05-01T18:06:36.735Z,72.41
2023-05-01T18:09:04.581Z,72.55
2023-05-01T18:11:32.020Z,72.63
2023-05-01T18:14:01.605Z,72.56
2023-05-01T18:16:29.103Z,72.67
2023-05-01T18:18:58.073Z,72.46
2023-05-01T18:21:27.203Z,72.53
2023-05-01T18:23:54.644Z,72.67
2023-05-01T18:26:22.235Z,72.95
2023-05-01T18:28:49.690Z,72.56
2023-05-01T18:31:18.589Z,72.83
2023-05-01T18:33:46.060Z,72.72
2023-05-01T18:36:13.470Z,72.80
2023-05-01T18:38:40.924Z,72.78
2023-05-01T18:41:08.361Z,72.92
2023-05-01T18:43:36.072Z,72.93
2023-05-01T18:46:03.526Z,72.74
2023-05-01T18:48:32.350Z,72.97
2023-05-01T18:51:08.573Z,72.79
2023-05-01T18:53:36.693Z,72.85
2023-05-01T18:56:04.266Z,72.76
2023-05-01T18:58:31.709Z,72.94
2023-05-01T19:00:59.142Z,72.90
2023-05-01T19:03:26.658Z,73.01
2023-05-01T19:05:55.442Z,72.81
2023-05-01T19:08:22.909Z,72.85
2023-05-01T19:10:50.370Z,72.94
2023-05-01T19:13:17.972Z,72.95
2023-05-01T19:15:46.315Z,72.92
2023-05-01T19:18:14.578Z,72.84
2023-05-01T19:20:42.008Z,72.85
2023-05-01T19:23:10.767Z,72.65
2023-05-01T19:25:38.581Z,72.66
2023-05-01T19:28:06.111Z,72.53
2023-05-01T19:30:33.569Z,72.66
2023-05-01T19:33:01.122Z,72.40
2023-05-01T19:35:28.653Z,72.39
2023-05-01T19:37:56.485Z,72.29
2023-05-01T19:40:25.288Z,72.35
2023-05-01T19:42:52.779Z,72.38
2023-05-01T19:45:20.335Z,72.29
2023-05-01T19:47:47.975Z,72.41
2023-05-01T19:50:17.480Z,72.25
2023-05-01T19:52:44.952Z,72.39
2023-05-01T19:55:12.999Z,72.27
2023-05-01T19:57:41.813Z,72.22
2023-05-01T20:00:11.673Z,72.27
2023-05-01T20:02:39.452Z,72.25
2023-05-01T20:05:07.144Z,72.18
2023-05-01T20:07:34.949Z,72.21
2023-05-01T20:10:02.550Z,72.07
2023-05-01T20:12:30.441Z,72.25
2023-05-01T20:15:00.503Z,72.30
2023-05-01T20:17:28.089Z,72.33
2023-05-01T20:19:55.900Z,72.31
2023-05-01T20:22:23.529Z,72.37
2023-05-01T20:24:51.132Z,72.23
2023-05-01T20:27:18.598Z,72.23
2023-05-01T20:29:46.048Z,72.37
2023-05-01T20:32:14.866Z,72.58
2023-05-01T20:34:42.472Z,72.40
2023-05-01T20:37:09.910Z,72.33
2023-05-01T20:39:37.319Z,72.30
2023-05-01T20:42:05.299Z,72.50
2023-05-01T20:44:32.916Z,72.31
2023-05-01T20:47:00.412Z,72.48
2023-05-01T20:49:29.416Z,72.44
2023-05-01T20:51:58.470Z,72.54
2023-05-01T20:54:26.005Z,72.56
2023-05-01T20:56:54.169Z,72.60
2023-05-01T20:59:21.705Z,72.65
2023-05-01T21:01:49.506Z,72.55
2023-05-01T21:04:17.536Z,72.61
2023-05-01T21:06:46.519Z,72.61
2023-05-01T21:09:15.045Z,72.60
2023-05-01T21:11:42.546Z,72.63
2023-05-01T21:14:10.041Z,72.38
2023-05-01T21:16:38.822Z,72.56
2023-05-01T21:19:06.843Z,72.48
2023-05-01T21:21:36.058Z,72.38
2023-05-01T21:24:05.353Z,72.49
2023-05-01T21:26:32.977Z,72.67
2023-05-01T21:29:00.577Z,72.33
2023-05-01T21:31:29.822Z,72.33
2023-05-01T21:33:59.024Z,72.33
2023-05-01T21:36:26.498Z,72.25
2023-05-01T21:38:53.979Z,72.28
2023-05-01T21:41:22.838Z,72.18
2023-05-01T21:43:50.312Z,72.20
2023-05-01T21:46:19.154Z,72.43
2023-05-01T21:48:47.617Z,72.40
2023-05-01T21:51:15.010Z,72.34
2023-05-01T21:53:43.004Z,72.30
2023-05-01T21:56:11.034Z,72.47
2023-05-01T21:58:40.204Z,72.38
2023-05-01T22:01:09.358Z,72.50
2023-05-01T22:03:40.488Z,72.53
2023-05-01T22:06:08.022Z,72.57
2023-05-01T22:08:35.491Z,72.42
2023-05-01T22:11:04.389Z,72.54
2023-05-01T22:13:34.286Z,72.59
2023-05-01T22:16:03.840Z,72.54
2023-05-01T22:18:31.435Z,72.42
2023-05-01T22:21:00.088Z,72.61
2023-05-01T22:23:27.631Z,72.61
2023-05-01T22:25:59.926Z,72.53
2023-05-01T22:28:27.656Z,72.49
2023-05-01T22:30:55.168Z,72.65
2023-05-01T22:33:23.973Z,72.69
2023-05-01T22:35:51.395Z,72.47
2023-05-01T22:38:18.822Z,72.88
2023-05-01T22:40:46.462Z,72.76
2023-05-01T22:43:13.902Z,72.79
2023-05-01T22:45:42.770Z,72.70
2023-05-01T22:48:10.624Z,72.75
2023-05-01T22:50:39.551Z,72.55
2023-05-01T22:53:07.234Z,72.55
2023-05-01T22:55:34.722Z,72.40
2023-05-01T22:58:02.283Z,72.54
2023-05-01T23:00:29.823Z,72.35
2023-05-01T23:02:57.435Z,72.43
2023-05-01T23:05:24.960Z,72.45
2023-05-01T23:07:53.760Z,72.28
2023-05-01T23:10:28.004Z,72.46
2023-05-01T23:12:55.566Z,72.29
2023-05-01T23:15:23.875Z,72.36
2023-05-01T23:17:51.402Z,72.23
2023-05-01T23:20:21.153Z,72.28
2023-05-01T23:22:49.049Z,72.26
2023-05-01T23:25:18.578Z,72.41
2023-05-01T23:27:49.794Z,72.56
2023-05-01T23:30:20.857Z,72.44
2023-05-01T23:32:48.658Z,72.62
2023-05-01T23:35:18.965Z,72.64
2023-05-01T23:37:46.428Z,72.60
2023-05-01T23:40:13.900Z,72.56
2023-05-01T23:42:42.666Z,72.66
2023-05-01T23:45:10.394Z,72.46
2023-05-01T23:47:38.745Z,72.55
2023-05-01T23:50:06.872Z,72.42
2023-05-01T23:52:34.382Z,72.53
2023-05-01T23:55:01.838Z,72.56
2023-05-01T23:57:29.458Z,72.54
2023-05-01T23:59:58.468Z,72.73
